createdAt,value
2018-08-27T00:00:32.501Z,0
2018-08-27T00:01:41.908Z,0
2018-08-27T00:02:51.315Z,0
2018-08-27T00:04:01.006Z,0
2018-08-27T00:05:10.688Z,0
2018-08-27T00:06:19.587Z,0
2018-08-27T00:07:29.259Z,0
2018-08-27T00:08:38.934Z,0
2018-08-27T00:09:48.588Z,0
2018-08-27T00:10:57.230Z,0
2018-08-27T00:12:06.401Z,0
2018-08-27T00:13:15.825Z,0
2018-08-27T00:14:25.766Z,0
2018-08-27T00:15:35.429Z,0
2018-08-27T00:16:45.107Z,0
2018-08-27T00:17:54.784Z,0
2018-08-27T00:19:03.680Z,0
2018-08-27T00:20:12.852Z,0
2018-08-27T00:21:22.013Z,0
2018-08-27T00:22:31.940Z,0
2018-08-27T00:23:41.101Z,0
2018-08-27T00:24:50.509Z,0
2018-08-27T00:25:59.925Z,0
2018-08-27T00:27:09.092Z,0
2018-08-27T00:28:18.512Z,0
2018-08-27T00:29:28.202Z,0
2018-08-27T00:30:37.874Z,0
2018-08-27T00:31:47.027Z,0
2018-08-27T00:32:56.696Z,0
2018-08-27T00:34:06.111Z,0
2018-08-27T00:35:15.532Z,0
2018-08-27T00:36:24.175Z,0
2018-08-27T00:37:32.806Z,0
2018-08-27T00:38:42.468Z,0
2018-08-27T00:39:51.625Z,0
2018-08-27T00:41:00.556Z,0
2018-08-27T00:42:10.483Z,0
2018-08-27T00:43:19.898Z,0
2018-08-27T00:44:28.815Z,0
2018-08-27T00:45:37.972Z,0
2018-08-27T00:46:47.905Z,0
2018-08-27T00:47:57.324Z,0
2018-08-27T00:49:06.754Z,0
2018-08-27T00:50:16.175Z,0
2018-08-27T00:51:25.592Z,0
2018-08-27T00:52:35.017Z,0
2018-08-27T00:53:44.940Z,0
2018-08-27T00:54:54.365Z,0
2018-08-27T00:56:03.575Z,0
2018-08-27T00:57:12.990Z,0
2018-08-27T00:58:22.397Z,0
2018-08-27T00:59:31.836Z,0
2018-08-27T01:00:41.263Z,0
2018-08-27T01:01:50.948Z,0
2018-08-27T01:03:00.367Z,0
2018-08-27T01:04:10.294Z,0
2018-08-27T01:05:19.722Z,0
2018-08-27T01:06:29.137Z,0
2018-08-27T01:07:38.303Z,0
2018-08-27T01:08:48.228Z,0
2018-08-27T01:09:57.389Z,0
2018-08-27T01:11:06.560Z,0
2018-08-27T01:12:15.974Z,0
2018-08-27T01:13:25.134Z,0
2018-08-27T01:14:34.798Z,0
2018-08-27T01:15:44.204Z,0
2018-08-27T01:16:53.632Z,0
2018-08-27T01:18:03.311Z,0
2018-08-27T01:19:12.728Z,0
2018-08-27T01:20:22.393Z,0
2018-08-27T01:21:31.556Z,0
2018-08-27T01:22:41.228Z,0
2018-08-27T01:23:50.374Z,0
2018-08-27T01:25:00.116Z,0
2018-08-27T01:26:09.546Z,0
2018-08-27T01:27:18.714Z,0
2018-08-27T01:28:28.134Z,0
2018-08-27T01:29:37.286Z,0
2018-08-27T01:30:46.458Z,0
2018-08-27T01:31:56.381Z,0
2018-08-27T01:33:05.805Z,0
2018-08-27T01:34:15.731Z,0
2018-08-27T01:35:25.143Z,0
2018-08-27T01:36:34.564Z,0
2018-08-27T01:37:43.716Z,0
2018-08-27T01:38:53.123Z,0
2018-08-27T01:40:02.811Z,0
2018-08-27T01:41:12.238Z,0
2018-08-27T01:42:21.656Z,0
2018-08-27T01:43:30.803Z,0
2018-08-27T01:44:40.231Z,0
2018-08-27T01:45:49.402Z,0
2018-08-27T01:46:58.820Z,0
2018-08-27T01:48:07.975Z,0
2018-08-27T01:49:17.132Z,0
2018-08-27T01:50:26.549Z,0
2018-08-27T01:51:35.977Z,0
2018-08-27T01:52:45.127Z,0
2018-08-27T01:53:54.548Z,0
2018-08-27T01:55:03.969Z,0
2018-08-27T01:56:13.387Z,0
2018-08-27T01:57:22.815Z,0
2018-08-27T01:58:32.239Z,0
2018-08-27T01:59:41.906Z,0
2018-08-27T02:00:51.325Z,0
2018-08-27T02:02:01.257Z,0
2018-08-27T02:03:10.953Z,0
2018-08-27T02:04:20.633Z,0
2018-08-27T02:05:30.040Z,0
2018-08-27T02:06:39.709Z,0
2018-08-27T02:07:49.109Z,0
2018-08-27T02:08:58.524Z,0
2018-08-27T02:10:08.458Z,0
2018-08-27T02:11:18.119Z,0
2018-08-27T02:12:27.298Z,0
2018-08-27T02:13:36.693Z,0
2018-08-27T02:14:45.883Z,0
2018-08-27T02:15:55.543Z,0
2018-08-27T02:17:05.217Z,0
2018-08-27T02:18:14.659Z,0
2018-08-27T02:19:24.329Z,0
2018-08-27T02:20:33.490Z,0
2018-08-27T02:21:42.657Z,0
2018-08-27T02:22:52.330Z,0
2018-08-27T02:24:02.039Z,0
2018-08-27T02:25:11.445Z,0
2018-08-27T02:26:20.609Z,0
2018-08-27T02:27:30.531Z,0
2018-08-27T02:28:39.940Z,0
2018-08-27T02:29:49.095Z,0
2018-08-27T02:30:58.772Z,0
2018-08-27T02:32:08.455Z,0
2018-08-27T02:33:17.871Z,0
2018-08-27T02:34:27.032Z,0
2018-08-27T02:35:36.705Z,0
2018-08-27T02:36:46.123Z,0
2018-08-27T02:37:55.829Z,0
2018-08-27T02:39:05.001Z,0
2018-08-27T02:40:14.414Z,0
2018-08-27T02:41:23.826Z,0
2018-08-27T02:42:33.266Z,0
2018-08-27T02:43:42.156Z,0
2018-08-27T02:44:51.050Z,0
2018-08-27T02:46:00.469Z,0
2018-08-27T02:47:10.127Z,0
2018-08-27T02:48:19.812Z,0
2018-08-27T02:49:28.964Z,0
2018-08-27T02:50:38.634Z,0
2018-08-27T02:51:47.801Z,0
2018-08-27T02:52:57.232Z,0
2018-08-27T02:54:06.401Z,0
2018-08-27T02:55:15.568Z,0
2018-08-27T02:56:24.733Z,0
2018-08-27T02:57:34.141Z,0
2018-08-27T02:58:43.045Z,0
2018-08-27T02:59:52.960Z,0
2018-08-27T03:01:02.634Z,0
2018-08-27T03:02:12.070Z,0
2018-08-27T03:03:21.501Z,0
2018-08-27T03:04:30.909Z,0
2018-08-27T03:05:40.574Z,0
2018-08-27T03:06:49.738Z,0
2018-08-27T03:07:58.904Z,0
2018-08-27T03:09:08.316Z,0
2018-08-27T03:10:17.745Z,0
2018-08-27T03:11:26.923Z,0
2018-08-27T03:12:36.583Z,0
2018-08-27T03:13:46.250Z,0
2018-08-27T03:14:55.406Z,0
2018-08-27T03:16:04.315Z,0
2018-08-27T03:17:13.998Z,0
2018-08-27T03:18:23.380Z,0
2018-08-27T03:19:33.126Z,0
2018-08-27T03:20:42.821Z,0
2018-08-27T03:21:52.242Z,0
2018-08-27T03:23:01.673Z,0
2018-08-27T03:24:11.098Z,0
2018-08-27T03:25:20.785Z,0
2018-08-27T03:26:30.209Z,0
2018-08-27T03:27:39.372Z,0
2018-08-27T03:28:49.304Z,0
2018-08-27T03:29:58.456Z,0
2018-08-27T03:31:07.887Z,0
2018-08-27T03:32:17.399Z,0
2018-08-27T03:33:26.821Z,0
2018-08-27T03:34:36.234Z,0
2018-08-27T03:35:46.169Z,0
2018-08-27T03:36:55.861Z,0
2018-08-27T03:38:05.840Z,0
2018-08-27T03:39:15.266Z,0
2018-08-27T03:40:24.159Z,0
2018-08-27T03:41:34.109Z,0
2018-08-27T03:42:43.532Z,0
2018-08-27T03:43:52.712Z,0
2018-08-27T03:45:01.873Z,0
2018-08-27T03:46:11.046Z,0
2018-08-27T03:47:20.227Z,0
2018-08-27T03:48:29.474Z,0
2018-08-27T03:49:39.264Z,0
2018-08-27T03:50:48.687Z,0
2018-08-27T03:51:57.852Z,0
2018-08-27T03:53:07.273Z,0
2018-08-27T03:54:16.688Z,0
2018-08-27T03:55:25.846Z,0
2018-08-27T03:56:35.260Z,0
2018-08-27T03:57:44.431Z,0
2018-08-27T03:58:54.168Z,0
2018-08-27T04:00:03.851Z,0
2018-08-27T04:01:13.265Z,0
2018-08-27T04:02:22.198Z,0
2018-08-27T04:03:31.343Z,0
2018-08-27T04:04:40.500Z,0
2018-08-27T04:05:49.913Z,0
2018-08-27T04:06:59.335Z,0
2018-08-27T04:08:08.498Z,0
2018-08-27T04:09:18.182Z,0
2018-08-27T04:10:27.346Z,0
2018-08-27T04:11:37.029Z,0
2018-08-27T04:12:46.208Z,0
2018-08-27T04:13:55.629Z,0
2018-08-27T04:15:05.319Z,0
2018-08-27T04:16:14.483Z,0
2018-08-27T04:17:23.922Z,0
2018-08-27T04:18:33.594Z,0
2018-08-27T04:19:43.534Z,0
2018-08-27T04:20:52.994Z,0
2018-08-27T04:22:02.165Z,0
2018-08-27T04:23:11.841Z,0
2018-08-27T04:24:21.270Z,0
2018-08-27T04:25:30.712Z,0
2018-08-27T04:26:40.639Z,0
2018-08-27T04:27:50.076Z,0
2018-08-27T04:28:59.205Z,0
2018-08-27T04:30:08.634Z,0
2018-08-27T04:31:18.305Z,0
2018-08-27T04:32:27.989Z,0
2018-08-27T04:33:36.891Z,0
2018-08-27T04:34:46.405Z,0
2018-08-27T04:35:55.893Z,0
2018-08-27T04:37:05.345Z,0
2018-08-27T04:38:15.007Z,0
2018-08-27T04:39:24.199Z,0
2018-08-27T04:40:33.869Z,0
2018-08-27T04:41:43.032Z,0
2018-08-27T04:42:52.194Z,0
2018-08-27T04:44:01.714Z,0
2018-08-27T04:45:10.966Z,0
2018-08-27T04:46:20.718Z,0
2018-08-27T04:47:29.904Z,0
2018-08-27T04:48:39.067Z,0
2018-08-27T04:49:48.474Z,0
2018-08-27T04:50:57.632Z,0
2018-08-27T04:52:06.529Z,0
2018-08-27T04:53:15.682Z,0
2018-08-27T04:54:25.656Z,0
2018-08-27T04:55:35.061Z,0
2018-08-27T04:56:44.235Z,0
2018-08-27T04:57:53.141Z,0
2018-08-27T04:59:03.069Z,0
2018-08-27T05:00:11.986Z,0
2018-08-27T05:01:21.660Z,0
2018-08-27T05:02:30.927Z,0
2018-08-27T05:03:40.604Z,0
2018-08-27T05:04:50.274Z,0
2018-08-27T05:05:59.950Z,0
2018-08-27T05:07:09.928Z,0
2018-08-27T05:08:18.830Z,0
2018-08-27T05:09:28.250Z,0
2018-08-27T05:10:37.931Z,0
2018-08-27T05:11:47.081Z,0
2018-08-27T05:12:56.493Z,0
2018-08-27T05:14:05.388Z,0
2018-08-27T05:15:15.067Z,0
2018-08-27T05:16:24.218Z,0
2018-08-27T05:17:33.918Z,0
2018-08-27T05:18:43.326Z,0
2018-08-27T05:19:52.787Z,0
2018-08-27T05:21:02.224Z,0
2018-08-27T05:22:11.389Z,0
2018-08-27T05:23:20.292Z,0
2018-08-27T05:24:29.440Z,0
2018-08-27T05:25:38.866Z,0
2018-08-27T05:26:48.296Z,0
2018-08-27T05:27:58.236Z,0
2018-08-27T05:29:07.661Z,0
2018-08-27T05:30:17.091Z,0
2018-08-27T05:31:26.467Z,0
2018-08-27T05:32:35.989Z,0
2018-08-27T05:33:45.151Z,0
2018-08-27T05:34:54.575Z,0
2018-08-27T05:36:03.739Z,0
2018-08-27T05:37:13.427Z,0
2018-08-27T05:38:23.487Z,0
2018-08-27T05:39:32.674Z,0
2018-08-27T05:40:41.838Z,0
2018-08-27T05:41:51.527Z,0
2018-08-27T05:43:01.121Z,0
2018-08-27T05:44:10.529Z,0
2018-08-27T05:45:19.962Z,0
2018-08-27T05:46:28.890Z,0
2018-08-27T05:47:38.625Z,0
2018-08-27T05:48:48.398Z,0
2018-08-27T05:49:57.573Z,0
2018-08-27T05:51:07.345Z,4
2018-08-27T05:52:17.057Z,4
2018-08-27T05:53:27.057Z,4
2018-08-27T05:54:36.503Z,0
2018-08-27T05:55:45.717Z,0
2018-08-27T05:56:55.417Z,0
2018-08-27T05:58:04.579Z,0
2018-08-27T05:59:13.477Z,0
2018-08-27T06:00:22.905Z,0
2018-08-27T06:01:32.598Z,4
2018-08-27T06:02:41.521Z,4
2018-08-27T06:03:50.957Z,0
2018-08-27T06:05:00.403Z,0
2018-08-27T06:06:10.078Z,0
2018-08-27T06:07:19.234Z,0
2018-08-27T06:08:28.917Z,0
2018-08-27T06:09:38.905Z,0
2018-08-27T06:10:48.049Z,0
2018-08-27T06:11:57.194Z,0
2018-08-27T06:13:06.608Z,0
2018-08-27T06:14:15.503Z,0
2018-08-27T06:15:24.919Z,0
2018-08-27T06:16:34.693Z,0
2018-08-27T06:17:43.860Z,0
2018-08-27T06:18:53.287Z,0
2018-08-27T06:20:02.458Z,0
2018-08-27T06:21:11.604Z,0
2018-08-27T06:22:21.813Z,4
2018-08-27T06:23:31.326Z,4
2018-08-27T06:24:40.754Z,0
2018-08-27T06:25:49.934Z,0
2018-08-27T06:26:59.623Z,4
2018-08-27T06:28:09.053Z,4
2018-08-27T06:29:18.222Z,4
2018-08-27T06:30:27.682Z,0
2018-08-27T06:31:37.373Z,4
2018-08-27T06:32:47.075Z,4
2018-08-27T06:33:56.500Z,0
2018-08-27T06:35:06.039Z,0
2018-08-27T06:36:15.215Z,4
2018-08-27T06:37:24.631Z,0
2018-08-27T06:38:33.541Z,0
2018-08-27T06:39:43.506Z,4
2018-08-27T06:40:52.677Z,4
2018-08-27T06:42:02.090Z,4
2018-08-27T06:43:10.982Z,4
2018-08-27T06:44:19.893Z,4
2018-08-27T06:45:29.596Z,4
2018-08-27T06:46:39.289Z,0
2018-08-27T06:47:48.707Z,4
2018-08-27T06:48:58.152Z,0
2018-08-27T06:50:07.062Z,4
2018-08-27T06:51:16.498Z,4
2018-08-27T06:52:25.916Z,4
2018-08-27T06:53:35.339Z,4
2018-08-27T06:54:44.754Z,4
2018-08-27T06:55:54.189Z,4
2018-08-27T06:57:03.355Z,8
2018-08-27T06:58:12.555Z,4
2018-08-27T06:59:21.971Z,4
2018-08-27T07:00:31.390Z,4
2018-08-27T07:01:40.827Z,4
2018-08-27T07:02:50.233Z,4
2018-08-27T07:03:59.675Z,4
2018-08-27T07:05:09.097Z,4
2018-08-27T07:06:18.259Z,4
2018-08-27T07:07:27.991Z,4
2018-08-27T07:08:37.736Z,4
2018-08-27T07:09:47.166Z,8
2018-08-27T07:10:56.394Z,4
2018-08-27T07:12:06.079Z,4
2018-08-27T07:13:15.509Z,4
2018-08-27T07:14:24.419Z,4
2018-08-27T07:15:33.098Z,4
2018-08-27T07:16:42.513Z,8
2018-08-27T07:17:52.198Z,8
2018-08-27T07:19:01.361Z,8
2018-08-27T07:20:10.907Z,8
2018-08-27T07:21:20.349Z,8
2018-08-27T07:22:29.787Z,8
2018-08-27T07:23:38.940Z,8
2018-08-27T07:24:48.640Z,8
2018-08-27T07:25:58.591Z,8
2018-08-27T07:27:08.271Z,8
2018-08-27T07:28:18.212Z,8
2018-08-27T07:29:27.363Z,4
2018-08-27T07:30:36.803Z,8
2018-08-27T07:31:46.221Z,8
2018-08-27T07:32:55.901Z,8
2018-08-27T07:34:05.621Z,8
2018-08-27T07:35:15.062Z,8
2018-08-27T07:36:25.276Z,8
2018-08-27T07:37:34.688Z,8
2018-08-27T07:38:44.132Z,8
2018-08-27T07:39:54.054Z,12
2018-08-27T07:41:03.740Z,8
2018-08-27T07:42:13.419Z,8
2018-08-27T07:43:23.216Z,12
2018-08-27T07:44:32.073Z,8
2018-08-27T07:45:41.506Z,8
2018-08-27T07:46:50.933Z,8
2018-08-27T07:48:00.612Z,12
2018-08-27T07:49:10.045Z,12
2018-08-27T07:50:19.450Z,12
2018-08-27T07:51:29.479Z,8
2018-08-27T07:52:39.159Z,12
2018-08-27T07:53:48.069Z,12
2018-08-27T07:54:57.249Z,12
2018-08-27T07:56:07.178Z,8
2018-08-27T07:57:16.591Z,12
2018-08-27T07:58:26.429Z,12
2018-08-27T07:59:36.558Z,12
2018-08-27T08:00:45.978Z,12
2018-08-27T08:01:55.137Z,12
2018-08-27T08:03:04.040Z,12
2018-08-27T08:04:14.013Z,8
2018-08-27T08:05:23.706Z,8
2018-08-27T08:06:33.371Z,12
2018-08-27T08:07:43.063Z,8
2018-08-27T08:08:52.499Z,8
2018-08-27T08:10:02.176Z,8
2018-08-27T08:11:11.860Z,8
2018-08-27T08:12:21.291Z,8
2018-08-27T08:13:30.959Z,12
2018-08-27T08:14:40.117Z,8
2018-08-27T08:15:49.796Z,8
2018-08-27T08:16:59.481Z,8
2018-08-27T08:18:08.911Z,8
2018-08-27T08:19:17.843Z,8
2018-08-27T08:20:26.998Z,4
2018-08-27T08:21:36.686Z,8
2018-08-27T08:22:45.991Z,8
2018-08-27T08:23:55.445Z,4
2018-08-27T08:25:05.127Z,8
2018-08-27T08:26:14.553Z,8
2018-08-27T08:27:23.464Z,8
2018-08-27T08:28:33.144Z,8
2018-08-27T08:29:42.599Z,8
2018-08-27T08:30:51.513Z,8
2018-08-27T08:32:00.942Z,8
2018-08-27T08:33:11.153Z,8
2018-08-27T08:34:21.192Z,12
2018-08-27T08:35:30.635Z,16
2018-08-27T08:36:39.811Z,12
2018-08-27T08:37:48.992Z,12
2018-08-27T08:38:58.432Z,12
2018-08-27T08:40:08.698Z,12
2018-08-27T08:41:18.228Z,12
2018-08-27T08:42:27.915Z,12
2018-08-27T08:43:37.609Z,8
2018-08-27T08:44:47.051Z,8
2018-08-27T08:45:56.477Z,12
2018-08-27T08:47:06.183Z,12
2018-08-27T08:48:15.878Z,12
2018-08-27T08:49:25.302Z,12
2018-08-27T08:50:34.729Z,12
2018-08-27T08:51:44.404Z,16
2018-08-27T08:52:54.092Z,24
2018-08-27T08:54:03.263Z,20
2018-08-27T08:55:13.199Z,20
2018-08-27T08:56:22.355Z,20
2018-08-27T08:57:32.074Z,24
2018-08-27T08:58:41.244Z,16
2018-08-27T08:59:51.206Z,16
2018-08-27T09:01:00.402Z,16
2018-08-27T09:02:09.313Z,16
2018-08-27T09:03:18.767Z,32
2018-08-27T09:04:27.937Z,20
2018-08-27T09:05:37.087Z,28
2018-08-27T09:06:46.519Z,16
2018-08-27T09:07:56.309Z,20
2018-08-27T09:09:06.425Z,36
2018-08-27T09:10:16.114Z,24
2018-08-27T09:11:25.277Z,24
2018-08-27T09:12:34.698Z,24
2018-08-27T09:13:44.660Z,20
2018-08-27T09:14:53.572Z,12
2018-08-27T09:16:02.990Z,8
2018-08-27T09:17:12.929Z,12
2018-08-27T09:18:22.810Z,12
2018-08-27T09:19:31.983Z,12
2018-08-27T09:20:41.676Z,16
2018-08-27T09:21:50.841Z,20
2018-08-27T09:22:59.754Z,20
2018-08-27T09:24:09.718Z,20
2018-08-27T09:25:18.667Z,16
2018-08-27T09:26:27.834Z,24
2018-08-27T09:27:37.509Z,20
2018-08-27T09:28:46.683Z,20
2018-08-27T09:29:56.119Z,20
2018-08-27T09:31:05.110Z,20
2018-08-27T09:32:14.543Z,20
2018-08-27T09:33:24.631Z,20
2018-08-27T09:34:33.556Z,20
2018-08-27T09:35:42.722Z,20
2018-08-27T09:36:52.687Z,20
2018-08-27T09:38:02.294Z,20
2018-08-27T09:39:11.973Z,20
2018-08-27T09:40:21.648Z,20
2018-08-27T09:41:31.810Z,20
2018-08-27T09:42:40.441Z,20
2018-08-27T09:43:50.137Z,20
2018-08-27T09:44:59.293Z,16
2018-08-27T09:46:09.257Z,16
2018-08-27T09:47:18.432Z,16
2018-08-27T09:48:28.122Z,16
2018-08-27T09:49:37.281Z,16
2018-08-27T09:50:46.458Z,16
2018-08-27T09:51:55.382Z,20
2018-08-27T09:53:04.677Z,20
2018-08-27T09:54:13.349Z,24
2018-08-27T09:55:22.260Z,24
2018-08-27T09:56:31.706Z,20
2018-08-27T09:57:41.389Z,20
2018-08-27T09:58:50.727Z,20
2018-08-27T10:00:00.613Z,24
2018-08-27T10:01:09.779Z,20
2018-08-27T10:02:19.462Z,32
2018-08-27T10:03:29.138Z,28
2018-08-27T10:04:38.312Z,20
2018-08-27T10:05:47.762Z,20
2018-08-27T10:06:56.912Z,20
2018-08-27T10:08:06.340Z,20
2018-08-27T10:09:16.389Z,20
2018-08-27T10:10:25.831Z,20
2018-08-27T10:11:35.507Z,20
2018-08-27T10:12:45.440Z,24
2018-08-27T10:13:55.139Z,20
2018-08-27T10:15:03.861Z,28
2018-08-27T10:16:13.839Z,32
2018-08-27T10:17:23.250Z,20
2018-08-27T10:18:32.415Z,20
2018-08-27T10:19:41.844Z,12
2018-08-27T10:20:51.571Z,16
2018-08-27T10:22:01.335Z,16
2018-08-27T10:23:10.817Z,20
2018-08-27T10:24:20.243Z,24
2018-08-27T10:25:29.932Z,20
2018-08-27T10:26:39.647Z,24
2018-08-27T10:27:49.325Z,24
2018-08-27T10:28:58.499Z,28
2018-08-27T10:30:08.348Z,28
2018-08-27T10:31:18.036Z,32
2018-08-27T10:32:27.718Z,32
2018-08-27T10:33:36.619Z,32
2018-08-27T10:34:45.531Z,24
2018-08-27T10:35:55.220Z,24
2018-08-27T10:37:04.950Z,24
2018-08-27T10:38:14.671Z,24
2018-08-27T10:39:24.347Z,32
2018-08-27T10:40:33.505Z,28
2018-08-27T10:41:42.915Z,32
2018-08-27T10:42:52.646Z,32
2018-08-27T10:44:02.400Z,28
2018-08-27T10:45:11.546Z,32
2018-08-27T10:46:21.235Z,28
2018-08-27T10:47:30.393Z,16
2018-08-27T10:48:39.885Z,28
2018-08-27T10:49:48.782Z,32
2018-08-27T10:50:57.948Z,28
2018-08-27T10:52:07.647Z,28
2018-08-27T10:53:17.066Z,16
2018-08-27T10:54:26.516Z,16
2018-08-27T10:55:35.944Z,28
2018-08-27T10:56:45.381Z,20
2018-08-27T10:57:54.817Z,20
2018-08-27T10:59:03.984Z,28
2018-08-27T11:00:13.161Z,28
2018-08-27T11:01:22.877Z,28
2018-08-27T11:02:32.292Z,28
2018-08-27T11:03:42.229Z,28
2018-08-27T11:04:51.403Z,28
2018-08-27T11:06:00.589Z,28
2018-08-27T11:07:10.003Z,28
2018-08-27T11:08:19.423Z,28
2018-08-27T11:09:28.851Z,28
2018-08-27T11:10:38.467Z,28
2018-08-27T11:11:47.445Z,28
2018-08-27T11:12:56.353Z,28
2018-08-27T11:14:05.775Z,24
2018-08-27T11:15:15.722Z,28
2018-08-27T11:16:25.132Z,28
2018-08-27T11:17:34.288Z,24
2018-08-27T11:18:43.738Z,28
2018-08-27T11:19:53.707Z,20
2018-08-27T11:21:02.975Z,24
2018-08-27T11:22:12.647Z,28
2018-08-27T11:23:22.071Z,24
2018-08-27T11:24:30.965Z,24
2018-08-27T11:25:40.382Z,28
2018-08-27T11:26:50.721Z,28
2018-08-27T11:28:00.415Z,28
2018-08-27T11:29:09.899Z,28
2018-08-27T11:30:18.563Z,24
2018-08-27T11:31:28.540Z,28
2018-08-27T11:32:37.471Z,24
2018-08-27T11:33:47.407Z,24
2018-08-27T11:34:56.573Z,28
2018-08-27T11:36:05.228Z,20
2018-08-27T11:37:14.394Z,28
2018-08-27T11:38:23.840Z,20
2018-08-27T11:39:33.524Z,28
2018-08-27T11:40:43.201Z,28
2018-08-27T11:41:52.901Z,28
2018-08-27T11:43:02.076Z,24
2018-08-27T11:44:11.745Z,28
2018-08-27T11:45:21.240Z,28
2018-08-27T11:46:30.657Z,28
2018-08-27T11:47:40.596Z,28
2018-08-27T11:48:50.014Z,28
2018-08-27T11:49:59.443Z,32
2018-08-27T11:51:09.097Z,32
2018-08-27T11:52:18.621Z,32
2018-08-27T11:53:28.050Z,20
2018-08-27T11:54:37.986Z,32
2018-08-27T11:55:46.890Z,28
2018-08-27T11:56:56.384Z,24
2018-08-27T11:58:05.614Z,20
2018-08-27T11:59:15.047Z,24
2018-08-27T12:00:24.724Z,28
2018-08-27T12:01:34.138Z,32
2018-08-27T12:02:43.577Z,28
2018-08-27T12:03:52.998Z,28
2018-08-27T12:05:02.457Z,16
2018-08-27T12:06:11.573Z,12
2018-08-27T12:07:20.731Z,12
2018-08-27T12:08:30.673Z,8
2018-08-27T12:09:39.843Z,12
2018-08-27T12:10:49.545Z,12
2018-08-27T12:11:59.246Z,12
2018-08-27T12:13:08.719Z,16
2018-08-27T12:14:17.897Z,28
2018-08-27T12:15:27.073Z,16
2018-08-27T12:16:36.489Z,12
2018-08-27T12:17:45.943Z,16
2018-08-27T12:18:55.622Z,32
2018-08-27T12:20:05.049Z,32
2018-08-27T12:21:14.485Z,24
2018-08-27T12:22:23.418Z,32
2018-08-27T12:23:32.835Z,32
2018-08-27T12:24:42.026Z,20
2018-08-27T12:25:51.970Z,32
2018-08-27T12:27:01.639Z,20
2018-08-27T12:28:11.321Z,16
2018-08-27T12:29:20.943Z,16
2018-08-27T12:30:30.047Z,36
2018-08-27T12:31:39.203Z,36
2018-08-27T12:32:48.893Z,32
2018-08-27T12:33:58.832Z,36
2018-08-27T12:35:08.246Z,32
2018-08-27T12:36:17.407Z,32
2018-08-27T12:37:27.349Z,32
2018-08-27T12:38:36.522Z,20
2018-08-27T12:39:45.939Z,36
2018-08-27T12:40:55.221Z,36
2018-08-27T12:42:05.339Z,20
2018-08-27T12:43:14.793Z,40
2018-08-27T12:44:24.205Z,36
2018-08-27T12:45:34.152Z,20
2018-08-27T12:46:43.576Z,40
2018-08-27T12:47:52.748Z,28
2018-08-27T12:49:02.176Z,40
2018-08-27T12:50:12.127Z,32
2018-08-27T12:51:21.929Z,44
2018-08-27T12:52:31.183Z,44
2018-08-27T12:53:40.598Z,44
2018-08-27T12:54:49.817Z,20
2018-08-27T12:55:59.256Z,20
2018-08-27T12:57:08.434Z,16
2018-08-27T12:58:18.138Z,40
2018-08-27T12:59:27.646Z,44
2018-08-27T13:00:37.068Z,44
2018-08-27T13:01:45.968Z,44
2018-08-27T13:02:55.914Z,16
2018-08-27T13:04:05.600Z,16
2018-08-27T13:05:15.298Z,16
2018-08-27T13:06:25.002Z,12
2018-08-27T13:07:34.204Z,16
2018-08-27T13:08:43.680Z,20
2018-08-27T13:09:53.616Z,36
2018-08-27T13:11:02.529Z,12
2018-08-27T13:12:11.686Z,12
2018-08-27T13:13:20.838Z,12
2018-08-27T13:14:30.778Z,12
2018-08-27T13:15:40.463Z,16
2018-08-27T13:16:50.421Z,16
2018-08-27T13:18:00.107Z,52
2018-08-27T13:19:09.409Z,52
2018-08-27T13:20:18.820Z,52
2018-08-27T13:21:28.522Z,52
2018-08-27T13:22:38.209Z,52
2018-08-27T13:23:47.626Z,52
2018-08-27T13:24:57.048Z,56
2018-08-27T13:26:07.263Z,52
2018-08-27T13:27:16.515Z,56
2018-08-27T13:28:25.674Z,56
2018-08-27T13:29:34.826Z,56
2018-08-27T13:30:44.285Z,56
2018-08-27T13:31:53.896Z,32
2018-08-27T13:33:02.983Z,60
2018-08-27T13:34:11.905Z,60
2018-08-27T13:35:20.814Z,40
2018-08-27T13:36:29.990Z,12
2018-08-27T13:37:39.163Z,12
2018-08-27T13:38:48.595Z,12
2018-08-27T13:39:58.066Z,12
2018-08-27T13:41:08.113Z,12
2018-08-27T13:42:17.556Z,12
2018-08-27T13:43:26.983Z,16
2018-08-27T13:44:36.148Z,16
2018-08-27T13:45:45.852Z,16
2018-08-27T13:46:55.330Z,40
2018-08-27T13:48:05.006Z,56
2018-08-27T13:49:14.453Z,60
2018-08-27T13:50:23.877Z,60
2018-08-27T13:51:33.302Z,56
2018-08-27T13:52:43.034Z,56
2018-08-27T13:53:52.519Z,60
2018-08-27T13:55:01.428Z,52
2018-08-27T13:56:10.584Z,16
2018-08-27T13:57:20.002Z,16
2018-08-27T13:58:29.176Z,16
2018-08-27T13:59:38.591Z,20
2018-08-27T14:00:48.071Z,20
2018-08-27T14:01:57.262Z,20
2018-08-27T14:03:06.706Z,16
2018-08-27T14:04:16.403Z,16
2018-08-27T14:05:26.411Z,12
2018-08-27T14:06:36.276Z,56
2018-08-27T14:07:45.711Z,32
2018-08-27T14:08:55.137Z,20
2018-08-27T14:10:05.080Z,12
2018-08-27T14:11:14.791Z,16
2018-08-27T14:12:24.837Z,16
2018-08-27T14:13:34.440Z,16
2018-08-27T14:14:44.255Z,12
2018-08-27T14:15:54.481Z,40
2018-08-27T14:17:04.428Z,16
2018-08-27T14:18:13.874Z,16
2018-08-27T14:19:24.271Z,16
2018-08-27T14:20:34.702Z,32
2018-08-27T14:21:44.750Z,56
2018-08-27T14:22:54.721Z,56
2018-08-27T14:24:04.150Z,56
2018-08-27T14:25:13.311Z,56
2018-08-27T14:26:22.715Z,60
2018-08-27T14:27:32.896Z,60
2018-08-27T14:28:42.347Z,52
2018-08-27T14:29:52.039Z,56
2018-08-27T14:31:01.961Z,52
2018-08-27T14:32:11.386Z,52
2018-08-27T14:33:21.420Z,56
2018-08-27T14:34:31.708Z,52
2018-08-27T14:35:41.351Z,48
2018-08-27T14:36:50.591Z,52
2018-08-27T14:38:00.016Z,48
2018-08-27T14:39:09.647Z,48
2018-08-27T14:40:18.949Z,56
2018-08-27T14:41:29.089Z,44
2018-08-27T14:42:39.284Z,40
2018-08-27T14:43:48.371Z,36
2018-08-27T14:44:58.591Z,36
2018-08-27T14:46:08.382Z,32
2018-08-27T14:47:17.804Z,32
2018-08-27T14:48:27.708Z,24
2018-08-27T14:49:36.870Z,20
2018-08-27T14:50:46.054Z,16
2018-08-27T14:51:54.754Z,16
2018-08-27T14:53:04.173Z,16
2018-08-27T14:54:14.132Z,12
2018-08-27T14:55:23.307Z,16
2018-08-27T14:56:32.218Z,16
2018-08-27T14:57:41.905Z,12
2018-08-27T14:58:51.582Z,12
2018-08-27T15:00:01.069Z,12
2018-08-27T15:01:10.228Z,12
2018-08-27T15:02:19.654Z,8
2018-08-27T15:03:29.463Z,8
2018-08-27T15:04:38.899Z,8
2018-08-27T15:05:48.325Z,12
2018-08-27T15:06:57.505Z,16
2018-08-27T15:08:06.926Z,16
2018-08-27T15:09:16.610Z,12
2018-08-27T15:10:26.058Z,12
2018-08-27T15:11:36.001Z,12
2018-08-27T15:12:45.158Z,16
2018-08-27T15:13:54.577Z,16
2018-08-27T15:15:03.783Z,12
2018-08-27T15:16:12.960Z,12
2018-08-27T15:17:22.124Z,16
2018-08-27T15:18:31.837Z,12
2018-08-27T15:19:41.274Z,12
2018-08-27T15:20:50.459Z,12
2018-08-27T15:22:00.150Z,12
2018-08-27T15:23:09.573Z,8
2018-08-27T15:24:19.050Z,8
2018-08-27T15:25:28.207Z,12
2018-08-27T15:26:37.142Z,12
2018-08-27T15:27:46.306Z,12
2018-08-27T15:28:55.734Z,12
2018-08-27T15:30:05.185Z,12
2018-08-27T15:31:15.129Z,8
2018-08-27T15:32:25.087Z,12
2018-08-27T15:33:34.518Z,12
2018-08-27T15:34:43.706Z,12
2018-08-27T15:35:53.427Z,8
2018-08-27T15:37:02.341Z,8
2018-08-27T15:38:11.259Z,12
2018-08-27T15:39:20.933Z,12
2018-08-27T15:40:29.863Z,12
2018-08-27T15:41:39.048Z,12
2018-08-27T15:42:48.223Z,8
2018-08-27T15:43:58.209Z,8
2018-08-27T15:45:07.886Z,12
2018-08-27T15:46:17.294Z,8
2018-08-27T15:47:26.497Z,4
2018-08-27T15:48:35.930Z,4
2018-08-27T15:49:45.863Z,8
2018-08-27T15:50:56.070Z,8
2018-08-27T15:52:06.333Z,8
2018-08-27T15:53:15.253Z,4
2018-08-27T15:54:23.904Z,4
2018-08-27T15:55:32.817Z,8
2018-08-27T15:56:42.488Z,8
2018-08-27T15:57:52.183Z,4
2018-08-27T15:59:01.612Z,8
2018-08-27T16:00:11.035Z,8
2018-08-27T16:01:20.716Z,8
2018-08-27T16:02:30.392Z,4
2018-08-27T16:03:40.067Z,4
2018-08-27T16:04:49.803Z,4
2018-08-27T16:05:59.796Z,4
2018-08-27T16:07:09.225Z,4
2018-08-27T16:08:18.899Z,4
2018-08-27T16:09:27.791Z,4
2018-08-27T16:10:36.978Z,8
2018-08-27T16:11:47.012Z,8
2018-08-27T16:12:56.495Z,8
2018-08-27T16:14:06.161Z,4
2018-08-27T16:15:15.594Z,8
2018-08-27T16:16:24.775Z,4
2018-08-27T16:17:34.458Z,8
2018-08-27T16:18:44.153Z,8
2018-08-27T16:19:54.463Z,4
2018-08-27T16:21:04.335Z,8
2018-08-27T16:22:13.604Z,8
2018-08-27T16:23:23.772Z,8
2018-08-27T16:24:33.732Z,8
2018-08-27T16:25:43.396Z,8
2018-08-27T16:26:52.813Z,8
2018-08-27T16:28:02.227Z,4
2018-08-27T16:29:11.640Z,4
2018-08-27T16:30:21.053Z,8
2018-08-27T16:31:30.239Z,4
2018-08-27T16:32:40.215Z,4
2018-08-27T16:33:49.873Z,8
2018-08-27T16:34:59.295Z,8
2018-08-27T16:36:08.710Z,4
2018-08-27T16:37:18.133Z,4
2018-08-27T16:38:27.561Z,4
2018-08-27T16:39:37.470Z,4
2018-08-27T16:40:47.866Z,4
2018-08-27T16:41:57.281Z,8
2018-08-27T16:43:06.475Z,4
2018-08-27T16:44:15.600Z,4
2018-08-27T16:45:25.677Z,4
2018-08-27T16:46:35.581Z,4
2018-08-27T16:47:44.751Z,4
2018-08-27T16:48:54.171Z,4
2018-08-27T16:50:03.352Z,4
2018-08-27T16:51:12.806Z,4